createdAt,value
2023-01-24T00:03:48.311Z,0.65
2023-01-24T00:08:50.319Z,0.63
2023-01-24T00:13:51.732Z,0.57
2023-01-24T00:18:53.194Z,0.52
2023-01-24T00:23:55.152Z,0.56
2023-01-24T00:28:56.342Z,0.61
2023-01-24T00:33:57.818Z,0.42
2023-01-24T00:38:59.224Z,0.32
2023-01-24T00:44:01.924Z,0.36
2023-01-24T00:49:02.962Z,0.42
2023-01-24T00:54:04.279Z,0.34
2023-01-24T00:59:05.973Z,0.27
2023-01-24T01:04:07.856Z,0.28
2023-01-24T01:09:09.129Z,0.35
2023-01-24T01:14:10.389Z,0.45
2023-01-24T01:19:12.413Z,0.42
2023-01-24T01:24:14.445Z,0.38
2023-01-24T01:29:15.618Z,0.39
2023-01-24T01:34:17.265Z,0.45
2023-01-24T01:39:18.692Z,0.45
2023-01-24T01:44:20.263Z,0.41
2023-01-24T01:49:21.562Z,0.37
2023-01-24T01:54:23.297Z,0.42
2023-01-24T01:59:24.514Z,0.44
2023-01-24T02:04:26.573Z,0.44
2023-01-24T02:09:28.042Z,0.3
2023-01-24T02:14:29.401Z,0.32
2023-01-24T02:19:31.328Z,0.42
2023-01-24T02:24:32.756Z,0.43
2023-01-24T02:29:34.019Z,0.34
2023-01-24T02:34:35.289Z,0.32
2023-01-24T02:39:37.084Z,0.35
2023-01-24T02:44:40.329Z,0.44
2023-01-24T02:49:40.091Z,0.47
2023-01-24T02:54:41.922Z,0.41
2023-01-24T02:59:43.802Z,0.42
2023-01-24T03:04:45.716Z,0.44
2023-01-24T03:09:47.877Z,0.49
2023-01-24T03:14:49.529Z,0.42
2023-01-24T03:19:50.981Z,0.38
2023-01-24T03:24:52.778Z,0.46
2023-01-24T03:29:54.804Z,0.51
2023-01-24T03:34:56.100Z,0.41
2023-01-24T03:39:57.701Z,0.35
2023-01-24T03:44:59.101Z,0.38
2023-01-24T03:50:00.603Z,0.45
2023-01-24T03:55:02.443Z,0.51
2023-01-24T04:00:03.583Z,0.52
2023-01-24T04:05:05.297Z,0.52
2023-01-24T04:10:07.152Z,0.52
2023-01-24T04:15:08.438Z,0.58
2023-01-24T04:20:10.142Z,0.63
2023-01-24T04:45:18.904Z,0.67
2023-01-24T05:00:24.188Z,0.74
2023-01-24T05:30:33.368Z,0.68
2023-01-24T05:40:36.906Z,0.67
2023-01-24T05:45:38.561Z,0.73
2023-01-24T05:55:41.969Z,0.69
2023-01-24T06:00:43.400Z,0.65
2023-01-24T06:05:44.721Z,0.77
2023-01-24T06:10:46.374Z,0.83
2023-01-24T06:15:47.664Z,0.79
2023-01-24T06:20:48.819Z,0.72
2023-01-24T06:25:50.721Z,0.75
2023-01-24T06:30:52.695Z,0.8
2023-01-24T06:35:54.832Z,0.78
2023-01-24T06:41:03.262Z,0.74
2023-01-24T06:46:04.248Z,0.71
2023-01-24T06:51:05.771Z,0.8
2023-01-24T06:56:07.133Z,0.87
2023-01-24T07:01:08.729Z,0.83
2023-01-24T07:06:10.399Z,0.78
2023-01-24T07:11:11.963Z,0.83
2023-01-24T07:16:13.823Z,0.91
2023-01-24T07:21:15.550Z,0.86
2023-01-24T07:26:17.335Z,0.76
2023-01-24T07:31:19.240Z,0.76
2023-01-24T07:36:21.316Z,0.78
2023-01-24T07:41:23.402Z,0.83
2023-01-24T07:46:24.711Z,0.77
2023-01-24T07:51:26.524Z,0.7
2023-01-24T07:56:28.507Z,0.82
2023-01-24T08:01:29.753Z,0.97
2023-01-24T08:06:31.776Z,0.94
2023-01-24T08:11:33.033Z,0.95
2023-01-24T08:16:34.686Z,1.02
2023-01-24T08:21:36.728Z,1.12
2023-01-24T08:26:38.953Z,1.1
2023-01-24T08:31:40.791Z,1.12
2023-01-24T08:36:42.839Z,1.09
2023-01-24T08:41:44.940Z,1.2
2023-01-24T08:46:46.612Z,1.24
2023-01-24T08:51:48.104Z,1.25
2023-01-24T08:56:50.517Z,1.12
2023-01-24T09:01:51.176Z,1.07
2023-01-24T09:06:52.468Z,1.14
2023-01-24T09:11:53.842Z,1.16
2023-01-24T09:16:55.760Z,1.15
2023-01-24T09:21:57.525Z,1.13
2023-01-24T09:26:59.238Z,1.22
2023-01-24T09:32:01.016Z,1.37
2023-01-24T09:37:02.759Z,1.45
2023-01-24T09:42:12.616Z,1.43
2023-01-24T09:47:05.603Z,1.43
2023-01-24T09:52:06.805Z,1.45
2023-01-24T09:57:08.329Z,1.32
2023-01-24T10:02:10.307Z,1.33
2023-01-24T10:07:11.632Z,1.34
2023-01-24T10:12:12.895Z,1.41
2023-01-24T10:17:14.776Z,1.44
2023-01-24T10:22:16.027Z,1.39
2023-01-24T10:27:17.948Z,1.46
2023-01-24T10:32:19.451Z,1.54
2023-01-24T10:37:21.220Z,1.65
2023-01-24T10:42:23.391Z,1.62
2023-01-24T10:47:25.560Z,1.58
2023-01-24T10:52:27.237Z,1.61
2023-01-24T10:57:28.644Z,1.68
2023-01-24T11:02:30.226Z,1.81
2023-01-24T11:07:31.721Z,1.71
2023-01-24T11:12:33.327Z,1.78
2023-01-24T11:17:35.191Z,1.8
2023-01-24T11:22:37.266Z,1.85
2023-01-24T11:27:38.493Z,1.76
2023-01-24T11:32:39.742Z,1.77
2023-01-24T11:37:41.764Z,1.88
2023-01-24T11:42:43.142Z,1.99
2023-01-24T11:47:45.311Z,2.03
2023-01-24T11:52:47.232Z,1.87
2023-01-24T11:57:49.355Z,1.9
2023-01-24T12:02:51.303Z,1.97
2023-01-24T12:07:52.493Z,2.04
2023-01-24T12:12:56.265Z,1.99
2023-01-24T12:17:55.690Z,2.03
2023-01-24T12:22:57.404Z,2.13
2023-01-24T12:27:59.126Z,2.18
2023-01-24T12:33:01.053Z,2.08
2023-01-24T12:38:08.224Z,2.03
2023-01-24T12:43:04.102Z,2.09
2023-01-24T12:48:06.144Z,2.09
2023-01-24T12:53:08.002Z,2.08
2023-01-24T12:58:10.126Z,2.07
2023-01-24T13:03:11.716Z,2.15
2023-01-24T13:08:13.590Z,2.22
2023-01-24T13:13:14.855Z,2.2
2023-01-24T13:18:16.581Z,2.25
2023-01-24T13:23:18.747Z,2.32
2023-01-24T13:28:20.694Z,2.39
2023-01-24T13:33:22.344Z,2.32
2023-01-24T13:38:24.523Z,2.28
2023-01-24T13:43:26.292Z,2.33
2023-01-24T13:48:27.498Z,2.26
2023-01-24T13:53:29.367Z,2.25
2023-01-24T13:58:31.150Z,2.15
2023-01-24T14:03:33.241Z,2.15
2023-01-24T14:08:35.228Z,2.24
2023-01-24T14:13:36.953Z,2.24
2023-01-24T14:18:38.312Z,2.22
2023-01-24T14:23:39.931Z,2.21
2023-01-24T14:28:42.020Z,2.29
2023-01-24T14:33:43.663Z,2.26
2023-01-24T14:38:45.012Z,2.19
2023-01-24T14:43:46.345Z,2.14
2023-01-24T14:48:47.736Z,2.21
2023-01-24T14:53:49.634Z,2.27
2023-01-24T14:58:53.853Z,2.32
2023-01-24T15:03:53.688Z,2.2
2023-01-24T15:08:55.148Z,2.22
2023-01-24T15:13:57.124Z,2.29
2023-01-24T15:18:58.449Z,2.34
2023-01-24T15:24:00.391Z,2.45
2023-01-24T15:29:01.934Z,2.47
2023-01-24T15:34:03.729Z,2.43
2023-01-24T15:39:05.735Z,2.41
2023-01-24T15:44:07.780Z,2.3
2023-01-24T15:49:10.057Z,2.31
2023-01-24T15:54:11.291Z,2.34
2023-01-24T15:59:12.579Z,2.39
2023-01-24T16:04:14.204Z,2.29
2023-01-24T16:09:15.962Z,2.32
2023-01-24T16:14:17.562Z,2.43
2023-01-24T16:19:19.429Z,2.52
2023-01-24T16:24:21.571Z,2.43
2023-01-24T16:29:23.333Z,2.38
2023-01-24T16:34:24.773Z,2.34
2023-01-24T16:39:26.410Z,2.38
2023-01-24T16:44:27.978Z,2.33
2023-01-24T16:49:30.544Z,2.28
2023-01-24T16:54:31.536Z,2.19
2023-01-24T16:59:32.769Z,2.19
2023-01-24T17:04:34.809Z,2.16
2023-01-24T17:09:36.455Z,2.07
2023-01-24T17:14:38.449Z,2.05
2023-01-24T17:19:40.512Z,2.08
2023-01-24T17:24:42.547Z,2.15
2023-01-24T17:29:44.197Z,2.22
2023-01-24T17:34:45.959Z,2.23
2023-01-24T17:39:48.062Z,2.25
2023-01-24T17:44:49.696Z,2.26
2023-01-24T17:49:51.826Z,2.26
2023-01-24T17:54:53.799Z,2.15
2023-01-24T17:59:55.618Z,2.1
2023-01-24T18:04:57.236Z,2.15
2023-01-24T18:09:59.157Z,2.21
2023-01-24T18:15:00.614Z,2.16
2023-01-24T18:20:03.620Z,2.13
2023-01-24T18:25:04.520Z,2.08
2023-01-24T18:30:05.659Z,2.06
2023-01-24T18:35:07.501Z,1.98
2023-01-24T18:40:08.943Z,1.94
2023-01-24T18:45:10.739Z,1.92
2023-01-24T19:10:19.900Z,1.89
2023-01-24T19:15:22.963Z,1.79
2023-01-24T19:40:29.086Z,1.71
2023-01-24T19:45:31.225Z,1.67
2023-01-24T19:50:33.459Z,1.7
2023-01-24T19:55:35.084Z,1.72
2023-01-24T20:00:36.610Z,1.74
2023-01-24T20:05:38.033Z,1.71
2023-01-24T20:10:39.953Z,1.65
2023-01-24T20:15:41.832Z,1.67
2023-01-24T20:20:43.144Z,1.59
2023-01-24T20:25:44.955Z,1.56
2023-01-24T20:30:46.829Z,1.5
2023-01-24T20:35:48.298Z,1.47
2023-01-24T20:40:50.457Z,1.5
2023-01-24T20:45:51.119Z,1.49
2023-01-24T20:50:52.512Z,1.33
2023-01-24T20:55:54.457Z,1.3
2023-01-24T21:00:55.913Z,1.34
2023-01-24T21:05:57.556Z,1.34
2023-01-24T21:10:59.659Z,1.26
2023-01-24T21:16:01.089Z,1.19
2023-01-24T21:21:02.166Z,1.22
2023-01-24T21:26:04.074Z,1.23
2023-01-24T21:31:05.584Z,1.19
2023-01-24T21:36:06.620Z,1.12
2023-01-24T21:41:07.839Z,1.17
2023-01-24T21:46:09.105Z,1.24
2023-01-24T21:51:10.355Z,1.32
2023-01-24T21:56:12.276Z,1.26
2023-01-24T22:01:14.424Z,1.26
2023-01-24T22:06:15.486Z,1.2
2023-01-24T22:11:17.436Z,1.19
2023-01-24T22:16:19.353Z,1.09
2023-01-24T22:21:20.792Z,1.03
2023-01-24T22:26:22.278Z,1.08
2023-01-24T22:31:23.813Z,1.16
2023-01-24T22:36:25.132Z,1.14
2023-01-24T22:41:26.502Z,1.13
2023-01-24T22:46:28.141Z,1.13
2023-01-24T22:51:29.582Z,1.15
2023-01-24T22:56:31.705Z,1.21
2023-01-24T23:01:33.731Z,1.04
2023-01-24T23:06:35.457Z,1.03
2023-01-24T23:11:37.222Z,1.01
2023-01-24T23:16:39.097Z,1.09
2023-01-24T23:21:40.511Z,1.03
2023-01-24T23:26:49.071Z,1.07
2023-01-24T23:31:50.964Z,1.04
2023-01-24T23:36:52.981Z,1.04
2023-01-24T23:41:54.683Z,1.02
2023-01-24T23:46:56.537Z,0.97
2023-01-24T23:51:57.818Z,0.95
2023-01-24T23:56:59.646Z,0.9
